createdAt,value
2023-04-26T00:00:07.136Z,2.70
2023-04-26T00:02:33.591Z,3.35
2023-04-26T00:05:00.367Z,3.10
2023-04-26T00:07:27.007Z,3.42
2023-04-26T00:09:53.502Z,2.75
2023-04-26T00:12:20.417Z,3.13
2023-04-26T00:14:48.342Z,2.58
2023-04-26T00:17:14.800Z,2.40
2023-04-26T00:19:41.499Z,3.22
2023-04-26T00:22:07.978Z,2.88
2023-04-26T00:24:34.813Z,3.55
2023-04-26T00:27:01.229Z,3.63
2023-04-26T00:29:27.675Z,2.95
2023-04-26T00:31:55.476Z,3.45
2023-04-26T00:34:21.887Z,2.28
2023-04-26T00:36:48.288Z,3.47
2023-04-26T00:39:14.698Z,2.72
2023-04-26T00:41:41.094Z,2.92
2023-04-26T00:44:07.511Z,3.72
2023-04-26T00:46:34.203Z,3.45
2023-04-26T00:49:02.933Z,3.30
2023-04-26T00:51:29.520Z,3.83
2023-04-26T00:53:56.978Z,4.18
2023-04-26T00:56:24.884Z,4.22
2023-04-26T00:58:51.433Z,3.50
2023-04-26T01:01:18.063Z,4.25
2023-04-26T01:03:44.918Z,3.58
2023-04-26T01:06:12.986Z,4.25
2023-04-26T01:08:39.790Z,4.10
2023-04-26T01:11:06.330Z,3.83
2023-04-26T01:13:32.832Z,3.45
2023-04-26T01:15:59.937Z,3.13
2023-04-26T01:18:26.849Z,2.88
2023-04-26T01:20:53.259Z,3.20
2023-04-26T01:23:21.030Z,2.92
2023-04-26T01:25:47.956Z,3.40
2023-04-26T01:28:14.394Z,4.22
2023-04-26T01:30:40.831Z,3.78
2023-04-26T01:33:07.352Z,3.58
2023-04-26T01:35:33.792Z,3.00
2023-04-26T01:38:00.260Z,4.13
2023-04-26T01:40:28.143Z,3.85
2023-04-26T01:42:54.547Z,3.13
2023-04-26T01:45:21.451Z,3.33
2023-04-26T01:47:47.879Z,4.15
2023-04-26T01:50:14.393Z,2.88
2023-04-26T01:52:40.816Z,2.95
2023-04-26T01:55:08.594Z,3.10
2023-04-26T01:57:36.309Z,3.47
2023-04-26T02:00:02.939Z,3.78
2023-04-26T02:02:29.462Z,3.38
2023-04-26T02:04:55.981Z,3.40
2023-04-26T02:07:23.986Z,3.33
2023-04-26T02:09:50.454Z,3.92
2023-04-26T02:12:16.826Z,3.65
2023-04-26T02:14:44.585Z,3.20
2023-04-26T02:17:11.116Z,2.90
2023-04-26T02:19:37.628Z,3.10
2023-04-26T02:22:07.722Z,3.67
2023-04-26T02:24:34.163Z,2.97
2023-04-26T02:27:00.596Z,3.22
2023-04-26T02:29:42.260Z,2.78
2023-04-26T02:32:11.325Z,3.55
2023-04-26T02:34:37.741Z,3.13
2023-04-26T02:37:04.130Z,2.85
2023-04-26T02:39:30.572Z,4.03
2023-04-26T02:41:57.177Z,2.92
2023-04-26T02:44:23.593Z,4.13
2023-04-26T02:46:50.251Z,3.03
2023-04-26T02:49:18.016Z,3.88
2023-04-26T02:51:44.394Z,4.15
2023-04-26T02:54:10.811Z,3.42
2023-04-26T02:56:37.192Z,3.53
2023-04-26T02:59:03.650Z,3.75
2023-04-26T03:01:30.299Z,3.67
2023-04-26T03:03:56.870Z,3.63
2023-04-26T03:06:24.749Z,3.88
2023-04-26T03:08:51.442Z,4.43
2023-04-26T03:11:19.998Z,4.07
2023-04-26T03:13:46.358Z,3.50
2023-04-26T03:16:12.874Z,3.22
2023-04-26T03:18:39.229Z,4.03
2023-04-26T03:21:05.659Z,3.97
2023-04-26T03:23:33.426Z,4.15
2023-04-26T03:25:59.806Z,4.25
2023-04-26T03:28:26.209Z,4.07
2023-04-26T03:30:52.585Z,4.07
2023-04-26T03:33:19.000Z,3.55
2023-04-26T03:35:45.520Z,4.15
2023-04-26T03:38:12.097Z,3.28
2023-04-26T03:40:39.829Z,4.65
2023-04-26T03:43:06.254Z,3.60
2023-04-26T03:45:32.654Z,4.20
2023-04-26T03:47:59.132Z,4.13
2023-04-26T03:50:25.575Z,3.65
2023-04-26T03:52:52.034Z,4.45
2023-04-26T03:55:18.517Z,3.90
2023-04-26T03:57:46.291Z,4.10
2023-04-26T04:00:13.828Z,4.20
2023-04-26T04:02:40.829Z,3.65
2023-04-26T04:05:08.012Z,3.40
2023-04-26T04:07:34.868Z,4.38
2023-04-26T04:10:01.330Z,4.63
2023-04-26T04:12:27.736Z,4.25
2023-04-26T04:14:55.526Z,3.53
2023-04-26T04:17:22.104Z,4.32
2023-04-26T04:19:48.587Z,5.43
2023-04-26T04:22:15.000Z,4.72
2023-04-26T04:24:41.394Z,4.47
2023-04-26T04:27:07.805Z,4.57
2023-04-26T04:29:34.216Z,4.75
2023-04-26T04:32:01.931Z,5.45
2023-04-26T04:34:28.352Z,4.10
2023-04-26T04:36:54.768Z,5.50
2023-04-26T04:39:21.275Z,4.22
2023-04-26T04:41:47.726Z,4.57
2023-04-26T04:44:14.208Z,5.35
2023-04-26T04:46:40.612Z,5.25
2023-04-26T04:49:08.476Z,3.90
2023-04-26T04:51:34.907Z,4.38
2023-04-26T04:54:09.634Z,5.05
2023-04-26T04:56:36.029Z,4.38
2023-04-26T04:59:02.496Z,3.75
2023-04-26T05:01:29.011Z,4.40
2023-04-26T05:03:55.883Z,4.65
2023-04-26T05:06:23.841Z,4.60
2023-04-26T05:08:50.233Z,3.95
2023-04-26T05:11:16.832Z,3.88
2023-04-26T05:13:43.221Z,4.40
2023-04-26T05:16:09.646Z,4.20
2023-04-26T05:18:36.070Z,4.78
2023-04-26T05:21:02.412Z,3.97
2023-04-26T05:23:30.286Z,4.82
2023-04-26T05:25:56.887Z,4.97
2023-04-26T05:28:23.513Z,4.30
2023-04-26T05:30:49.913Z,5.80
2023-04-26T05:33:16.425Z,3.42
2023-04-26T05:35:42.799Z,4.60
2023-04-26T05:38:09.183Z,4.68
2023-04-26T05:40:37.030Z,5.30
2023-04-26T05:43:03.489Z,4.18
2023-04-26T05:45:30.068Z,4.93
2023-04-26T05:47:56.569Z,4.45
2023-04-26T05:50:23.006Z,5.28
2023-04-26T05:52:49.403Z,4.00
2023-04-26T05:55:15.894Z,4.13
2023-04-26T05:57:43.609Z,4.43
2023-04-26T06:00:11.147Z,3.92
2023-04-26T06:02:37.652Z,4.13
2023-04-26T06:05:04.937Z,3.92
2023-04-26T06:07:31.721Z,4.05
2023-04-26T06:09:58.173Z,4.65
2023-04-26T06:12:25.105Z,3.92
2023-04-26T06:14:52.782Z,4.00
2023-04-26T06:17:19.418Z,4.47
2023-04-26T06:19:45.889Z,3.72
2023-04-26T06:22:12.394Z,4.22
2023-04-26T06:24:38.772Z,4.00
2023-04-26T06:27:05.447Z,3.83
2023-04-26T06:29:32.979Z,4.57
2023-04-26T06:32:00.894Z,4.60
2023-04-26T06:34:27.244Z,4.00
2023-04-26T06:36:53.848Z,4.35
2023-04-26T06:39:20.298Z,3.40
2023-04-26T06:41:46.661Z,4.22
2023-04-26T06:44:13.066Z,3.70
2023-04-26T06:46:39.681Z,3.70
2023-04-26T06:49:08.427Z,3.35
2023-04-26T06:51:34.830Z,4.80
2023-04-26T06:54:01.266Z,4.28
2023-04-26T06:56:27.686Z,4.00
2023-04-26T06:59:02.000Z,3.72
2023-04-26T07:01:28.881Z,4.53
2023-04-26T07:03:55.796Z,4.70
2023-04-26T07:06:24.190Z,4.60
2023-04-26T07:08:50.711Z,3.28
2023-04-26T07:11:17.233Z,4.03
2023-04-26T07:13:43.631Z,3.20
2023-04-26T07:16:10.105Z,3.80
2023-04-26T07:18:36.591Z,2.83
2023-04-26T07:21:03.093Z,3.53
2023-04-26T07:23:30.782Z,3.38
2023-04-26T07:25:57.895Z,5.22
2023-04-26T07:28:24.445Z,3.67
2023-04-26T07:30:50.939Z,4.05
2023-04-26T07:33:17.521Z,3.75
2023-04-26T07:35:44.056Z,3.78
2023-04-26T07:38:10.487Z,4.10
2023-04-26T07:40:38.206Z,3.90
2023-04-26T07:43:04.591Z,4.20
2023-04-26T07:45:32.374Z,3.00
2023-04-26T07:47:58.797Z,4.03
2023-04-26T07:50:25.302Z,3.05
2023-04-26T07:52:51.736Z,2.97
2023-04-26T07:55:18.254Z,2.80
2023-04-26T07:57:45.964Z,3.00
2023-04-26T08:00:13.652Z,3.83
2023-04-26T08:02:45.152Z,3.22
2023-04-26T08:05:12.156Z,3.47
2023-04-26T08:07:38.779Z,3.10
2023-04-26T08:10:06.140Z,2.88
2023-04-26T08:12:33.120Z,3.92
2023-04-26T08:15:01.195Z,3.42
2023-04-26T08:17:27.654Z,2.40
2023-04-26T08:19:54.376Z,3.28
2023-04-26T08:22:20.841Z,3.20
2023-04-26T08:24:48.036Z,2.80
2023-04-26T08:27:14.479Z,3.53
2023-04-26T08:29:40.919Z,3.13
2023-04-26T08:32:08.734Z,3.30
2023-04-26T08:34:35.205Z,2.58
2023-04-26T08:37:01.577Z,2.70
2023-04-26T08:39:28.129Z,2.65
2023-04-26T08:41:55.012Z,2.47
2023-04-26T08:44:23.485Z,2.63
2023-04-26T08:47:00.484Z,2.83
2023-04-26T08:49:33.710Z,2.03
2023-04-26T08:52:00.434Z,2.40
2023-04-26T08:54:27.061Z,2.30
2023-04-26T08:56:55.257Z,2.22
2023-04-26T08:59:22.902Z,2.72
2023-04-26T09:01:49.731Z,2.38
2023-04-26T09:04:17.366Z,1.95
2023-04-26T09:06:46.101Z,2.72
2023-04-26T09:09:15.648Z,2.40
2023-04-26T09:11:58.201Z,1.83
2023-04-26T09:14:24.836Z,1.90
2023-04-26T09:16:51.309Z,2.20
2023-04-26T09:19:17.942Z,3.80
2023-04-26T09:21:46.711Z,1.95
2023-04-26T09:24:13.757Z,2.83
2023-04-26T09:26:40.219Z,2.75
2023-04-26T09:29:17.230Z,2.63
2023-04-26T09:31:48.612Z,2.67
2023-04-26T09:34:16.074Z,2.08
2023-04-26T09:36:54.364Z,2.67
2023-04-26T09:39:31.701Z,3.03
2023-04-26T09:41:58.187Z,2.63
2023-04-26T09:44:25.090Z,2.25
2023-04-26T09:46:59.698Z,2.50
2023-04-26T09:49:26.523Z,2.20
2023-04-26T09:52:05.109Z,3.25
2023-04-26T09:54:38.624Z,2.03
2023-04-26T09:57:05.011Z,2.00
2023-04-26T09:59:39.678Z,2.60
2023-04-26T10:02:13.297Z,2.42
2023-04-26T10:07:09.433Z,2.25
2023-04-26T10:09:35.897Z,2.20
2023-04-26T10:12:02.475Z,2.45
2023-04-26T10:14:29.738Z,2.83
2023-04-26T10:16:56.694Z,2.20
2023-04-26T10:19:23.640Z,2.45
2023-04-26T10:21:53.536Z,2.70
2023-04-26T10:24:22.981Z,2.45
2023-04-26T10:26:50.882Z,1.80
2023-04-26T10:29:17.418Z,2.17
2023-04-26T10:32:06.851Z,2.08
2023-04-26T10:34:35.096Z,2.63
2023-04-26T10:37:11.260Z,2.20
2023-04-26T10:39:40.231Z,2.20
2023-04-26T10:42:25.072Z,2.40
2023-04-26T10:44:54.223Z,1.90
2023-04-26T10:47:22.936Z,2.72
2023-04-26T10:49:49.511Z,2.30
2023-04-26T10:52:17.210Z,3.15
2023-04-26T10:54:49.720Z,2.47
2023-04-26T10:57:16.754Z,2.13
2023-04-26T11:00:35.731Z,1.42
2023-04-26T11:03:06.894Z,2.08
2023-04-26T11:05:51.956Z,1.65
2023-04-26T11:08:20.015Z,2.67
2023-04-26T11:10:59.383Z,2.80
2023-04-26T11:13:35.707Z,2.33
2023-04-26T11:16:03.430Z,2.42
2023-04-26T11:18:30.717Z,1.73
2023-04-26T11:20:57.936Z,2.20
2023-04-26T11:23:25.929Z,2.47
2023-04-26T11:25:53.873Z,2.28
2023-04-26T11:28:20.681Z,2.28
2023-04-26T11:30:48.980Z,2.28
2023-04-26T11:33:19.610Z,2.03
2023-04-26T11:35:46.555Z,2.10
2023-04-26T11:38:13.931Z,2.45
2023-04-26T11:40:40.362Z,2.58
2023-04-26T11:43:09.146Z,3.00
2023-04-26T11:45:37.150Z,2.53
2023-04-26T11:48:05.630Z,2.63
2023-04-26T11:50:34.051Z,2.70
2023-04-26T11:53:02.045Z,2.42
2023-04-26T11:55:30.490Z,2.90
2023-04-26T11:57:56.939Z,2.88
2023-04-26T12:00:25.757Z,3.35
2023-04-26T12:02:52.534Z,3.10
2023-04-26T12:05:23.605Z,2.80
2023-04-26T12:07:51.368Z,2.15
2023-04-26T12:10:19.478Z,2.53
2023-04-26T12:12:49.767Z,2.95
2023-04-26T12:15:17.724Z,2.55
2023-04-26T12:17:56.476Z,2.75
2023-04-26T12:20:30.272Z,3.00
2023-04-26T12:23:00.731Z,2.60
2023-04-26T12:25:27.579Z,2.58
2023-04-26T12:27:54.126Z,2.25
2023-04-26T12:30:20.911Z,2.90
2023-04-26T12:32:47.930Z,2.75
2023-04-26T12:35:16.166Z,2.60
2023-04-26T12:37:42.736Z,2.65
2023-04-26T12:40:10.559Z,2.30
2023-04-26T12:42:37.261Z,2.38
2023-04-26T12:45:04.241Z,2.03
2023-04-26T12:47:30.757Z,2.75
2023-04-26T12:49:57.315Z,2.80
2023-04-26T12:52:25.040Z,2.90
2023-04-26T12:54:51.414Z,3.00
2023-04-26T12:57:17.946Z,2.75
2023-04-26T12:59:44.313Z,3.22
2023-04-26T13:02:10.752Z,2.55
2023-04-26T13:04:40.821Z,2.70
2023-04-26T13:07:07.864Z,3.63
2023-04-26T13:09:35.635Z,2.63
2023-04-26T13:12:02.034Z,3.03
2023-04-26T13:14:28.408Z,3.13
2023-04-26T13:16:54.865Z,3.05
2023-04-26T13:19:21.272Z,2.97
2023-04-26T13:21:47.856Z,2.60
2023-04-26T13:24:14.237Z,2.90
2023-04-26T13:26:41.982Z,2.33
2023-04-26T13:29:08.377Z,3.30
2023-04-26T13:31:34.865Z,3.10
2023-04-26T13:34:01.766Z,2.63
2023-04-26T13:36:28.177Z,2.85
2023-04-26T13:38:54.635Z,2.80
2023-04-26T13:41:21.062Z,3.28
2023-04-26T13:43:48.753Z,2.70
2023-04-26T13:46:15.326Z,2.88
2023-04-26T13:48:41.774Z,3.05
2023-04-26T13:51:08.198Z,3.33
2023-04-26T13:53:34.566Z,2.88
2023-04-26T13:56:00.955Z,2.70
2023-04-26T13:58:27.574Z,3.13
2023-04-26T14:00:55.360Z,3.47
2023-04-26T14:03:22.034Z,2.97
2023-04-26T14:05:48.521Z,3.85
2023-04-26T14:08:15.053Z,2.50
2023-04-26T14:10:41.539Z,2.88
2023-04-26T14:13:07.990Z,2.63
2023-04-26T14:15:34.361Z,2.65
2023-04-26T14:18:02.216Z,4.13
2023-04-26T14:20:28.675Z,4.68
2023-04-26T14:22:55.068Z,3.03
2023-04-26T14:25:21.478Z,3.20
2023-04-26T14:27:47.852Z,2.75
2023-04-26T14:30:14.640Z,3.10
2023-04-26T14:32:41.095Z,3.55
2023-04-26T14:35:09.237Z,3.50
2023-04-26T14:37:35.645Z,3.13
2023-04-26T14:40:02.221Z,3.00
2023-04-26T14:42:28.573Z,3.90
2023-04-26T14:44:55.045Z,2.63
2023-04-26T14:47:21.537Z,3.50
2023-04-26T14:49:47.918Z,3.63
2023-04-26T14:52:15.608Z,2.78
2023-04-26T14:54:42.173Z,2.92
2023-04-26T14:57:08.926Z,3.20
2023-04-26T14:59:35.356Z,3.55
2023-04-26T15:02:01.797Z,3.20
2023-04-26T15:04:28.926Z,3.13
2023-04-26T15:06:55.587Z,4.30
2023-04-26T15:09:23.305Z,2.97
2023-04-26T15:11:49.658Z,3.50
2023-04-26T15:14:16.039Z,3.25
2023-04-26T15:16:42.506Z,3.45
2023-04-26T15:19:08.898Z,3.35
2023-04-26T15:21:35.345Z,3.63
2023-04-26T15:24:01.741Z,3.33
2023-04-26T15:26:29.448Z,4.47
2023-04-26T15:28:55.808Z,4.38
2023-04-26T15:31:22.246Z,5.20
2023-04-26T15:33:48.650Z,3.47
2023-04-26T15:36:15.078Z,4.57
2023-04-26T15:38:41.485Z,3.28
2023-04-26T15:41:07.838Z,4.10
2023-04-26T15:43:35.629Z,3.75
2023-04-26T15:46:02.288Z,3.83
2023-04-26T15:48:28.770Z,3.65
2023-04-26T15:50:55.186Z,3.38
2023-04-26T15:53:21.597Z,3.17
2023-04-26T15:55:48.036Z,3.63
2023-04-26T15:58:14.628Z,2.83
2023-04-26T16:00:42.739Z,4.25
2023-04-26T16:03:09.290Z,3.22
2023-04-26T16:05:36.096Z,3.15
2023-04-26T16:08:02.604Z,3.40
2023-04-26T16:10:29.021Z,3.85
2023-04-26T16:12:55.480Z,3.75
2023-04-26T16:15:22.188Z,3.30
2023-04-26T16:17:49.947Z,3.10
2023-04-26T16:20:16.481Z,3.25
2023-04-26T16:22:45.066Z,3.40
2023-04-26T16:25:11.786Z,3.85
2023-04-26T16:27:38.183Z,3.40
2023-04-26T16:30:05.674Z,3.80
2023-04-26T16:32:32.101Z,3.65
2023-04-26T16:35:00.165Z,3.92
2023-04-26T16:37:26.597Z,3.53
2023-04-26T16:39:54.041Z,3.83
2023-04-26T16:42:20.419Z,4.47
2023-04-26T16:44:46.850Z,4.53
2023-04-26T16:47:13.225Z,4.45
2023-04-26T16:49:39.620Z,3.63
2023-04-26T16:52:07.478Z,3.95
2023-04-26T16:54:33.937Z,3.83
2023-04-26T16:57:00.342Z,3.95
2023-04-26T16:59:26.766Z,4.05
2023-04-26T17:01:54.377Z,4.05
2023-04-26T17:04:20.935Z,4.28
2023-04-26T17:06:47.521Z,4.32
2023-04-26T17:09:15.213Z,4.05
2023-04-26T17:11:41.573Z,4.43
2023-04-26T17:14:08.002Z,4.53
2023-04-26T17:16:34.497Z,4.20
2023-04-26T17:19:00.912Z,4.10
2023-04-26T17:21:27.265Z,4.43
2023-04-26T17:23:53.649Z,4.00
2023-04-26T17:26:21.369Z,4.00
2023-04-26T17:28:47.791Z,4.20
2023-04-26T17:31:14.223Z,5.07
2023-04-26T17:33:40.880Z,4.45
2023-04-26T17:36:07.677Z,4.20
2023-04-26T17:38:34.028Z,5.40
2023-04-26T17:41:00.456Z,4.45
2023-04-26T17:43:28.187Z,5.05
2023-04-26T17:45:54.670Z,4.20
2023-04-26T17:48:21.116Z,4.65
2023-04-26T17:50:47.686Z,5.22
2023-04-26T17:53:14.098Z,5.63
2023-04-26T17:55:40.460Z,4.40
2023-04-26T17:58:07.040Z,5.18
2023-04-26T18:00:34.956Z,4.68
2023-04-26T18:03:01.573Z,4.78
2023-04-26T18:05:28.093Z,4.40
2023-04-26T18:07:54.466Z,5.43
2023-04-26T18:10:21.008Z,4.57
2023-04-26T18:12:47.409Z,5.05
2023-04-26T18:15:13.911Z,4.10
2023-04-26T18:17:41.759Z,4.95
2023-04-26T18:20:08.924Z,4.20
2023-04-26T18:22:35.289Z,3.92
2023-04-26T18:25:01.910Z,3.88
2023-04-26T18:27:28.356Z,3.10
2023-04-26T18:29:54.738Z,2.80
2023-04-26T18:32:21.126Z,3.03
2023-04-26T18:34:48.858Z,2.42
2023-04-26T18:37:15.505Z,2.97
2023-04-26T18:39:41.874Z,2.55
2023-04-26T18:42:08.295Z,3.33
2023-04-26T18:44:34.696Z,3.10
2023-04-26T18:47:01.056Z,3.05
2023-04-26T18:49:27.482Z,3.40
2023-04-26T18:51:55.249Z,3.55
2023-04-26T18:54:21.662Z,3.53
2023-04-26T18:56:48.134Z,3.70
2023-04-26T18:59:14.598Z,3.08
2023-04-26T19:01:41.145Z,2.75
2023-04-26T19:04:07.781Z,2.88
2023-04-26T19:06:34.276Z,2.97
2023-04-26T19:09:02.019Z,2.88
2023-04-26T19:11:28.489Z,2.80
2023-04-26T19:13:54.906Z,3.03
2023-04-26T19:16:21.396Z,2.75
2023-04-26T19:18:47.902Z,2.63
2023-04-26T19:21:14.346Z,3.10
2023-04-26T19:23:40.721Z,3.33
2023-04-26T19:26:10.137Z,3.88
2023-04-26T19:28:36.564Z,2.97
2023-04-26T19:31:03.119Z,3.08
2023-04-26T19:33:30.031Z,3.13
2023-04-26T19:35:56.472Z,3.70
2023-04-26T19:38:23.232Z,3.20
2023-04-26T19:40:49.647Z,3.15
2023-04-26T19:43:17.465Z,3.20
2023-04-26T19:45:44.417Z,3.58
2023-04-26T19:48:10.950Z,4.18
2023-04-26T19:50:41.304Z,3.72
2023-04-26T19:53:08.210Z,3.20
2023-04-26T19:55:34.608Z,3.60
2023-04-26T19:58:01.008Z,3.90
2023-04-26T20:00:28.890Z,3.58
2023-04-26T20:02:56.040Z,3.80
2023-04-26T20:05:22.440Z,4.22
2023-04-26T20:07:48.860Z,3.33
2023-04-26T20:10:15.467Z,3.45
2023-04-26T20:12:41.837Z,3.75
2023-04-26T20:15:09.496Z,3.10
2023-04-26T20:17:37.351Z,3.78
2023-04-26T20:20:04.156Z,3.72
2023-04-26T20:22:30.553Z,3.30
2023-04-26T20:24:56.983Z,3.72
2023-04-26T20:27:23.444Z,3.85
2023-04-26T20:29:49.847Z,3.75
2023-04-26T20:32:16.363Z,3.75
2023-04-26T20:34:44.132Z,4.75
2023-04-26T20:37:10.515Z,5.07
2023-04-26T20:39:36.889Z,3.90
2023-04-26T20:42:03.380Z,4.05
2023-04-26T20:44:29.751Z,3.63
2023-04-26T20:46:56.140Z,3.83
2023-04-26T20:49:22.742Z,3.63
2023-04-26T20:51:50.476Z,4.25
2023-04-26T20:54:16.958Z,3.80
2023-04-26T20:56:43.344Z,3.95
2023-04-26T20:59:10.062Z,3.83
2023-04-26T21:01:36.745Z,4.53
2023-04-26T21:04:03.589Z,4.38
2023-04-26T21:06:30.227Z,4.88
2023-04-26T21:08:57.956Z,4.43
2023-04-26T21:11:24.322Z,4.63
2023-04-26T21:13:50.688Z,4.68
2023-04-26T21:16:17.247Z,4.38
2023-04-26T21:18:43.638Z,4.50
2023-04-26T21:21:10.090Z,5.32
2023-04-26T21:23:36.482Z,4.78
2023-04-26T21:26:04.464Z,5.53
2023-04-26T21:28:30.880Z,4.95
2023-04-26T21:31:03.587Z,5.88
2023-04-26T21:33:30.168Z,5.90
2023-04-26T21:35:58.867Z,5.40
2023-04-26T21:38:26.987Z,5.07
2023-04-26T21:40:53.393Z,5.13
2023-04-26T21:43:21.124Z,5.90
2023-04-26T21:45:47.831Z,5.60
2023-04-26T21:48:14.221Z,4.47
2023-04-26T21:50:40.571Z,5.32
2023-04-26T21:53:06.950Z,5.05
2023-04-26T21:55:33.339Z,4.50
2023-04-26T21:57:59.702Z,4.80
2023-04-26T22:00:27.628Z,4.95
2023-04-26T22:02:54.177Z,4.72
2023-04-26T22:05:20.857Z,3.83
2023-04-26T22:07:47.325Z,4.55
2023-04-26T22:10:13.694Z,4.47
2023-04-26T22:12:40.058Z,4.70
2023-04-26T22:15:07.699Z,4.43
2023-04-26T22:17:35.474Z,4.28
2023-04-26T22:20:01.931Z,4.70
2023-04-26T22:22:28.503Z,4.88
2023-04-26T22:24:54.922Z,4.88
2023-04-26T22:27:21.291Z,4.28
2023-04-26T22:29:47.718Z,4.47
2023-04-26T22:32:14.157Z,4.68
2023-04-26T22:34:43.807Z,5.45
2023-04-26T22:37:20.275Z,5.10
2023-04-26T22:39:47.846Z,5.05
2023-04-26T22:42:14.210Z,5.90
2023-04-26T22:44:40.571Z,5.35
2023-04-26T22:47:06.912Z,4.45
2023-04-26T22:49:33.321Z,4.88
2023-04-26T22:52:09.449Z,4.55
2023-04-26T22:54:40.983Z,4.90
2023-04-26T22:57:07.396Z,4.50
2023-04-26T22:59:33.989Z,5.03
2023-04-26T23:02:00.447Z,5.20
2023-04-26T23:04:26.862Z,4.50
2023-04-26T23:06:53.659Z,4.95
2023-04-26T23:09:21.436Z,5.13
2023-04-26T23:11:50.689Z,5.15
2023-04-26T23:14:17.105Z,4.53
2023-04-26T23:16:43.683Z,5.57
2023-04-26T23:19:10.252Z,5.72
2023-04-26T23:21:37.003Z,5.10
2023-04-26T23:24:03.880Z,6.57
2023-04-26T23:26:32.151Z,4.68
2023-04-26T23:28:58.522Z,4.72
2023-04-26T23:31:26.094Z,5.93
2023-04-26T23:33:52.518Z,4.85
2023-04-26T23:36:18.883Z,5.43
2023-04-26T23:38:45.443Z,5.63
2023-04-26T23:41:11.797Z,5.68
2023-04-26T23:43:39.503Z,5.78
2023-04-26T23:46:05.949Z,5.70
2023-04-26T23:48:32.391Z,5.07
2023-04-26T23:50:58.740Z,5.85
2023-04-26T23:53:25.254Z,5.32
2023-04-26T23:55:51.610Z,5.40
2023-04-26T23:58:18.001Z,5.75
